Time;durP1;ratioP1;P1;durP2;ratioP2;P2;SDS_P1;SDS_P2;PMS_P1;PMS_P2;Temp;Humidity;BMP_temperature;BMP_pressure;BME280_temperature;BME280_humidity;BME280_pressure;Samples;Min_cycle;Max_cycle;Signal;HPM_P1;HPM_P2
2024/01/21 00:00:59;;;;;;;4.43;2.95;;;;;;;-8.01;100.00;93900.66;2096639;28;20493;-80
2024/01/21 00:02:01;;;;;;;5.97;2.80;;;;;;;-8.04;100.00;93898.63;2100097;27;20072;-80
2024/01/21 00:03:03;;;;;;;4.60;2.95;;;;;;;-8.04;100.00;93896.78;2122671;27;20551;-79
2024/01/21 00:04:06;;;;;;;4.18;2.85;;;;;;;-7.96;100.00;93908.38;2095525;27;20497;-79
2024/01/21 00:05:07;;;;;;;6.50;2.65;;;;;;;-7.96;100.00;93900.59;2112048;27;20540;-80
2024/01/21 00:06:08;;;;;;;5.05;3.10;;;;;;;-8.10;100.00;93900.50;2106488;27;20478;-81
2024/01/21 00:07:09;;;;;;;6.43;2.80;;;;;;;-8.08;100.00;93903.59;2089148;28;20441;-79
2024/01/21 00:08:10;;;;;;;3.95;2.80;;;;;;;-8.14;100.00;93902.88;2098775;28;20458;-79
2024/01/21 00:09:11;;;;;;;3.70;2.92;;;;;;;-8.28;100.00;93909.81;2108269;27;20055;-81
2024/01/21 00:10:12;;;;;;;4.68;2.92;;;;;;;-8.23;100.00;93906.38;2123290;27;20487;-81
2024/01/21 00:11:13;;;;;;;5.38;2.70;;;;;;;-8.19;100.00;93902.94;2084410;27;20030;-81
2024/01/21 00:12:15;;;;;;;5.75;3.22;;;;;;;-8.15;100.00;93890.97;2121340;27;20072;-79
2024/01/21 00:13:16;;;;;;;4.70;3.40;;;;;;;-8.17;100.00;93902.66;2096430;28;20461;-80
2024/01/21 00:14:17;;;;;;;5.53;3.40;;;;;;;-8.19;100.00;93905.53;2107736;28;20030;-80
2024/01/21 00:15:18;;;;;;;5.15;3.50;;;;;;;-8.21;100.00;93899.09;2098796;28;20145;-80
2024/01/21 00:16:19;;;;;;;5.80;3.28;;;;;;;-8.21;100.00;93905.06;2093735;28;20046;-80
2024/01/21 00:17:20;;;;;;;4.93;3.15;;;;;;;-8.16;100.00;93901.63;2090359;28;20036;-80
2024/01/21 00:18:21;;;;;;;4.82;3.10;;;;;;;-8.30;100.00;93896.34;2093363;27;20441;-78
2024/01/21 00:19:22;;;;;;;4.72;3.03;;;;;;;-8.28;100.00;93903.84;2122204;27;20375;-79
2024/01/21 00:20:23;;;;;;;4.45;2.70;;;;;;;-8.33;100.00;93901.34;2117453;27;20047;-79
2024/01/21 00:21:24;;;;;;;4.57;3.03;;;;;;;-8.37;100.00;93901.13;2096573;28;20023;-80
2024/01/21 00:22:25;;;;;;;4.68;3.08;;;;;;;-8.38;100.00;93899.59;2103246;28;20020;-80
2024/01/21 00:23:26;;;;;;;5.57;2.95;;;;;;;-8.37;100.00;93893.38;2087945;28;20024;-79
2024/01/21 00:24:27;;;;;;;4.50;3.05;;;;;;;-8.36;100.00;93900.81;2114605;28;20439;-80
2024/01/21 00:25:28;;;;;;;5.00;3.00;;;;;;;-8.51;100.00;93902.88;2106912;27;20055;-80
2024/01/21 00:26:29;;;;;;;3.50;2.85;;;;;;;-8.44;100.00;93900.69;2100202;28;20035;-78
2024/01/21 00:27:30;;;;;;;5.68;3.28;;;;;;;-8.42;100.00;93893.44;2112215;28;20102;-79
2024/01/21 00:28:30;;;;;;;3.70;2.53;;;;;;;-8.45;100.00;93899.16;2106804;27;20145;-79
2024/01/21 00:29:31;;;;;;;4.57;3.30;;;;;;;-8.38;100.00;93897.00;2122937;27;20068;-80
2024/01/21 00:30:32;;;;;;;5.60;3.15;;;;;;;-8.40;100.00;93896.50;2094894;27;20029;-80
2024/01/21 00:31:35;;;;;;;5.00;2.97;;;;;;;-8.37;100.00;93891.53;2110123;27;20015;-80
2024/01/21 00:32:37;;;;;;;4.25;3.05;;;;;;;-8.35;100.00;93891.22;2122509;27;20054;-78
2024/01/21 00:33:38;;;;;;;3.90;2.90;;;;;;;-8.40;100.00;93889.50;2100351;28;20554;-78
2024/01/21 00:34:39;;;;;;;3.28;2.45;;;;;;;-8.36;100.00;93884.50;2102032;28;20445;-80
2024/01/21 00:35:40;;;;;;;3.45;2.55;;;;;;;-8.38;100.00;93892.59;2083288;28;20039;-80
2024/01/21 00:36:41;;;;;;;6.00;3.00;;;;;;;-8.48;100.00;93886.75;2104583;27;20532;-80
2024/01/21 00:37:43;;;;;;;6.00;2.97;;;;;;;-8.50;100.00;93886.25;2111057;28;20468;-79
2024/01/21 00:38:44;;;;;;;4.20;2.55;;;;;;;-8.45;100.00;93883.59;2091043;28;20455;-80
2024/01/21 00:39:45;;;;;;;4.13;3.20;;;;;;;-8.41;100.00;93885.38;2103501;28;20768;-78
2024/01/21 00:40:46;;;;;;;4.70;3.03;;;;;;;-8.38;100.00;93889.25;2076681;28;20150;-78
2024/01/21 00:41:47;;;;;;;4.60;3.13;;;;;;;-8.45;100.00;93891.38;2120574;27;20445;-79
2024/01/21 00:42:48;;;;;;;4.68;2.60;;;;;;;-8.49;100.00;93885.22;2087703;28;20046;-79
2024/01/21 00:43:49;;;;;;;4.38;2.78;;;;;;;-8.45;100.00;93889.56;2090039;28;20114;-81
2024/01/21 00:44:50;;;;;;;6.47;3.20;;;;;;;-8.43;100.00;93879.69;2113412;28;20561;-79
2024/01/21 00:45:53;;;;;;;6.00;3.65;;;;;;;-8.40;100.00;93881.72;2099597;28;20720;-80
2024/01/21 00:46:53;;;;;;;4.45;2.85;;;;;;;-8.40;100.00;93881.72;2106121;28;20508;-80
2024/01/21 00:47:54;;;;;;;5.95;3.05;;;;;;;-8.48;100.00;93887.50;2088599;28;20450;-82
2024/01/21 00:48:57;;;;;;;5.30;2.92;;;;;;;-8.54;100.00;93882.69;2091349;28;20059;-81
2024/01/21 00:49:59;;;;;;;3.60;2.70;;;;;;;-8.45;100.00;93886.19;2106118;28;20028;-78
2024/01/21 00:51:01;;;;;;;5.50;3.05;;;;;;;-8.40;100.00;93886.91;2090163;27;20445;-79
2024/01/21 00:52:02;;;;;;;5.18;2.63;;;;;;;-8.44;100.00;93890.31;2114188;28;20497;-79
2024/01/21 00:53:03;;;;;;;4.93;3.10;;;;;;;-8.42;100.00;93883.06;2090814;28;20592;-80
2024/01/21 00:54:04;;;;;;;5.47;2.70;;;;;;;-8.41;100.00;93882.78;2093631;28;20528;-79
2024/01/21 00:55:05;;;;;;;3.85;2.70;;;;;;;-8.43;100.00;93886.69;2121190;27;20425;-80
2024/01/21 00:56:06;;;;;;;3.75;2.60;;;;;;;-8.56;100.00;93885.53;2107779;27;20027;-80
2024/01/21 00:57:07;;;;;;;3.70;2.80;;;;;;;-8.48;100.00;93881.56;2122980;27;20441;-80
2024/01/21 00:58:08;;;;;;;5.30;2.88;;;;;;;-8.54;100.00;93875.69;2093028;27;21344;-80
2024/01/21 00:59:15;;;;;;;5.05;3.13;;;;;;;-8.50;100.00;93883.69;2120482;27;20080;-79
2024/01/21 01:00:16;;;;;;;3.92;2.20;;;;;;;-8.49;100.00;93875.63;2114199;27;20425;-78
2024/01/21 01:01:19;;;;;;;3.40;2.58;;;;;;;-8.60;100.00;93876.00;2106212;27;20460;-80
2024/01/21 01:02:20;;;;;;;4.28;2.78;;;;;;;-8.52;100.00;93880.56;2113996;28;20436;-79
2024/01/21 01:03:21;;;;;;;2.40;2.10;;;;;;;-8.55;100.00;93870.78;2068433;28;20480;-79
2024/01/21 01:04:22;;;;;;;5.30;2.25;;;;;;;-8.49;100.00;93880.03;2104440;28;20028;-80
2024/01/21 01:05:23;;;;;;;3.58;2.50;;;;;;;-8.47;100.00;93883.09;2089089;28;20589;-79
2024/01/21 01:06:24;;;;;;;4.07;2.60;;;;;;;-8.47;100.00;93878.72;2113550;28;20054;-81
2024/01/21 01:07:25;;;;;;;4.75;2.85;;;;;;;-8.57;100.00;93885.81;2105454;27;20019;-79
2024/01/21 01:08:26;;;;;;;4.40;2.63;;;;;;;-8.52;100.00;93880.56;2110575;27;20023;-79
2024/01/21 01:09:27;;;;;;;3.40;2.60;;;;;;;-8.46;100.00;93876.88;2119830;27;20026;-80
2024/01/21 01:10:28;;;;;;;6.03;2.20;;;;;;;-8.41;100.00;93882.00;2107338;27;20054;-80
2024/01/21 01:11:29;;;;;;;3.00;2.15;;;;;;;-8.37;100.00;93883.00;2111410;27;20043;-78
2024/01/21 01:12:29;;;;;;;3.58;2.65;;;;;;;-8.25;100.00;93882.53;2100002;27;20031;-80
2024/01/21 01:13:31;;;;;;;4.38;2.30;;;;;;;-8.23;100.00;93875.28;2111412;28;20023;-78
2024/01/21 01:14:32;;;;;;;4.90;2.53;;;;;;;-8.25;100.00;93885.94;2106714;27;20039;-81
2024/01/21 01:15:32;;;;;;;4.30;2.00;;;;;;;-8.21;100.00;93883.53;2105498;27;21101;-79
2024/01/21 01:16:39;;;;;;;4.30;2.47;;;;;;;-8.21;100.00;93886.13;2121494;27;20408;-79
2024/01/21 01:17:40;;;;;;;4.15;2.20;;;;;;;-8.18;100.00;93875.97;2104552;27;20021;-78
2024/01/21 01:18:41;;;;;;;4.72;2.63;;;;;;;-8.16;100.00;93883.47;2102164;28;20440;-80
2024/01/21 01:19:42;;;;;;;3.22;2.30;;;;;;;-8.16;100.00;93878.31;2102829;28;20031;-80
2024/01/21 01:20:43;;;;;;;4.03;2.30;;;;;;;-8.16;100.00;93884.25;2090804;28;20073;-80
2024/01/21 01:21:44;;;;;;;4.00;2.33;;;;;;;-8.12;100.00;93880.06;2113515;28;20102;-79
2024/01/21 01:22:45;;;;;;;2.50;2.30;;;;;;;-8.03;100.00;93879.41;2080114;28;20449;-81
2024/01/21 01:23:46;;;;;;;3.60;2.20;;;;;;;-7.96;100.00;93888.38;2105805;28;20032;-80
2024/01/21 01:24:47;;;;;;;3.70;2.47;;;;;;;-8.00;100.00;93884.81;2105090;27;20426;-79
2024/01/21 01:25:48;;;;;;;2.95;2.35;;;;;;;-7.94;100.00;93882.94;2107267;27;20522;-80
2024/01/21 01:26:49;;;;;;;3.45;2.30;;;;;;;-7.94;100.00;93880.34;2093997;28;20058;-81
2024/01/21 01:27:50;;;;;;;3.65;2.40;;;;;;;-7.97;100.00;93871.28;2088207;28;20020;-79
2024/01/21 01:28:51;;;;;;;3.80;2.05;;;;;;;-7.96;100.00;93872.81;2104435;28;20400;-80
2024/01/21 01:29:53;;;;;;;3.17;2.40;;;;;;;-7.91;100.00;93882.34;2097525;27;20050;-79
2024/01/21 01:30:53;;;;;;;3.67;2.40;;;;;;;-7.87;100.00;93872.94;2122198;27;20023;-80
2024/01/21 01:31:54;;;;;;;3.58;2.30;;;;;;;-7.85;100.00;93865.69;2104438;27;20451;-80
2024/01/21 01:32:55;;;;;;;4.35;2.38;;;;;;;-7.77;100.00;93867.63;2103620;27;20050;-79
2024/01/21 01:33:56;;;;;;;5.30;2.65;;;;;;;-7.88;100.00;93867.00;2122284;27;20019;-78
2024/01/21 01:34:57;;;;;;;5.00;2.33;;;;;;;-7.86;100.00;93866.72;2105572;27;20471;-80
2024/01/21 01:35:58;;;;;;;4.85;2.88;;;;;;;-7.82;100.00;93864.31;2114277;27;20031;-80
2024/01/21 01:36:59;;;;;;;3.65;2.53;;;;;;;-7.71;100.00;93853.53;2096719;27;20069;-81
2024/01/21 01:38:00;;;;;;;3.38;2.65;;;;;;;-7.72;100.00;93853.81;2113901;27;20055;-80
2024/01/21 01:39:01;;;;;;;4.00;2.75;;;;;;;-7.74;100.00;93851.47;2122382;27;20019;-79
2024/01/21 01:40:03;;;;;;;4.18;3.03;;;;;;;-7.68;100.00;93863.34;2105286;28;20503;-81
2024/01/21 01:41:04;;;;;;;4.25;3.05;;;;;;;-7.63;100.00;93859.91;2094560;28;20078;-80
2024/01/21 01:42:05;;;;;;;3.25;2.30;;;;;;;-7.59;100.00;93858.28;2105424;28;20538;-81
2024/01/21 01:43:07;;;;;;;3.38;2.72;;;;;;;-7.49;100.00;93857.34;2087449;28;20486;-83
2024/01/21 01:44:09;;;;;;;4.82;2.80;;;;;;;-7.51;100.00;93867.22;2114120;28;20991;-80
2024/01/21 01:45:10;;;;;;;5.63;3.17;;;;;;;-7.46;100.00;93859.34;2105451;27;20461;-82
2024/01/21 01:46:11;;;;;;;3.97;2.75;;;;;;;-7.39;100.00;93855.34;2105395;27;20034;-79
2024/01/21 01:47:12;;;;;;;3.50;2.45;;;;;;;-7.35;100.00;93855.53;2113899;28;20024;-78
2024/01/21 01:48:13;;;;;;;3.92;2.70;;;;;;;-7.32;100.00;93851.63;2098621;28;20546;-80
2024/01/21 01:49:15;;;;;;;3.38;2.50;;;;;;;-7.04;100.00;93845.41;2105601;28;21100;-80
2024/01/21 01:50:17;;;;;;;4.18;2.67;;;;;;;-7.12;100.00;93852.03;2102848;28;20488;-79
2024/01/21 01:51:19;;;;;;;3.78;2.40;;;;;;;-7.17;100.00;93844.31;2090054;28;20454;-79
2024/01/21 01:52:20;;;;;;;4.05;2.30;;;;;;;-7.18;100.00;93845.38;2110237;28;20782;-80
2024/01/21 01:53:22;;;;;;;3.67;2.20;;;;;;;-7.04;100.00;93839.44;2108360;28;21035;-80
2024/01/21 01:54:26;;;;;;;4.90;2.53;;;;;;;-7.11;100.00;93843.19;2095875;28;20449;-80
2024/01/21 01:55:28;;;;;;;5.18;2.33;;;;;;;-7.05;100.00;93843.09;2108679;28;20446;-79
2024/01/21 01:56:29;;;;;;;3.78;2.15;;;;;;;-7.14;100.00;93851.56;2089858;28;20626;-81
2024/01/21 01:57:31;;;;;;;3.60;2.45;;;;;;;-7.06;100.00;93849.34;2100286;28;20967;-81
2024/01/21 01:58:35;;;;;;;2.53;2.17;;;;;;;-6.91;100.00;93843.88;2103200;28;20449;-80
2024/01/21 01:59:38;;;;;;;2.78;2.35;;;;;;;-6.91;100.00;93851.66;2105342;28;20524;-80
2024/01/21 02:00:39;;;;;;;3.95;2.15;;;;;;;-6.97;100.00;93850.22;2122030;27;20436;-80
2024/01/21 02:01:40;;;;;;;4.82;2.35;;;;;;;-6.97;100.00;93852.84;2094389;28;20495;-79
2024/01/21 02:02:42;;;;;;;2.90;2.50;;;;;;;-7.01;100.00;93857.81;2096611;28;20459;-79
2024/01/21 02:03:43;;;;;;;3.55;1.92;;;;;;;-7.10;100.00;93860.31;2111190;28;20444;-82
2024/01/21 02:04:43;;;;;;;3.90;2.65;;;;;;;-7.13;100.00;93858.28;2109025;27;20609;-80
2024/01/21 02:05:45;;;;;;;4.93;2.58;;;;;;;-7.17;100.00;93856.53;2113732;28;20047;-81
2024/01/21 02:06:48;;;;;;;5.00;2.70;;;;;;;-7.21;100.00;93853.75;2105433;27;20031;-81
2024/01/21 02:07:49;;;;;;;3.33;2.33;;;;;;;-7.12;100.00;93844.22;2116619;27;20425;-80
2024/01/21 02:08:50;;;;;;;3.55;2.35;;;;;;;-7.16;100.00;93852.88;2114671;27;21128;-80
2024/01/21 02:09:51;;;;;;;2.30;2.10;;;;;;;-7.06;100.00;93855.31;2122065;27;20280;-81
2024/01/21 02:10:52;;;;;;;2.72;2.30;;;;;;;-7.12;100.00;93851.25;2113863;28;20118;-81
2024/01/21 02:11:57;;;;;;;4.20;2.83;;;;;;;-7.09;100.00;93845.50;2095610;27;20052;-81
2024/01/21 02:12:58;;;;;;;3.83;2.38;;;;;;;-7.18;100.00;93855.78;2114172;27;20469;-78
2024/01/21 02:14:00;;;;;;;4.53;2.20;;;;;;;-7.15;100.00;93849.25;2105355;28;21077;-80
2024/01/21 02:15:02;;;;;;;3.65;2.28;;;;;;;-6.93;100.00;93844.16;2099596;28;20574;-81
2024/01/21 02:16:03;;;;;;;5.18;2.58;;;;;;;-6.92;100.00;93843.09;2122394;27;20432;-80
2024/01/21 02:17:04;;;;;;;3.70;2.42;;;;;;;-6.91;100.00;93846.47;2103626;27;20532;-81
2024/01/21 02:18:05;;;;;;;4.28;2.40;;;;;;;-6.94;100.00;93847.81;2111478;28;20440;-79
2024/01/21 02:19:15;;;;;;;3.42;2.42;;;;;;;-6.94;100.00;93850.41;2075327;28;20476;-80
2024/01/21 02:20:16;;;;;;;5.70;2.75;;;;;;;-6.96;100.00;93851.78;2038361;27;20027;-80
2024/01/21 02:21:17;;;;;;;4.07;2.67;;;;;;;-6.93;100.00;93853.81;2014039;28;23131;-79
2024/01/21 02:22:20;;;;;;;6.53;3.45;;;;;;;-6.93;100.00;93840.81;2033015;28;20544;-78
2024/01/21 02:23:21;;;;;;;5.10;3.15;;;;;;;-6.99;100.00;93844.53;2053956;28;20499;-79
2024/01/21 02:25:58;;;;;;;5.70;2.63;;;;;;;-7.38;100.00;93840.53;2071225;27;20462;-81
2024/01/21 02:27:00;;;;;;;6.00;2.80;;;;;;;-7.28;100.00;93840.38;2084009;27;20134;-79
2024/01/21 02:28:01;;;;;;;3.38;2.65;;;;;;;-7.22;100.00;93831.44;2097554;27;20193;-79
2024/01/21 02:29:02;;;;;;;4.32;3.00;;;;;;;-7.31;100.00;93835.75;2091659;28;20462;-82
2024/01/21 02:30:04;;;;;;;5.28;2.92;;;;;;;-7.07;100.00;93832.22;2101326;28;20465;-82
2024/01/21 02:31:05;;;;;;;3.85;2.70;;;;;;;-7.14;100.00;93833.38;2122087;27;20578;-81
2024/01/21 02:32:06;;;;;;;5.50;3.00;;;;;;;-7.01;100.00;93828.47;2129485;27;20618;-81
2024/01/21 02:33:08;;;;;;;4.25;2.60;;;;;;;-7.18;100.00;93829.03;2129989;27;20035;-80
2024/01/21 02:34:09;;;;;;;6.00;3.08;;;;;;;-7.11;100.00;93827.59;2121304;28;20031;-80
2024/01/21 02:35:10;;;;;;;5.32;3.50;;;;;;;-6.95;100.00;93822.88;2112495;28;20445;-80
2024/01/21 02:36:11;;;;;;;4.28;2.58;;;;;;;-7.03;100.00;93825.38;2108077;28;20056;-79
2024/01/21 02:37:12;;;;;;;4.57;3.38;;;;;;;-7.03;100.00;93826.16;2107474;28;20153;-80
2024/01/21 02:38:13;;;;;;;4.55;2.42;;;;;;;-7.01;100.00;93825.88;2112903;27;20032;-80
2024/01/21 02:39:14;;;;;;;4.05;2.92;;;;;;;-6.97;100.00;93825.00;2121102;28;20517;-79
2024/01/21 02:40:15;;;;;;;4.40;2.97;;;;;;;-6.98;100.00;93820.09;2122123;27;20030;-81
2024/01/21 02:41:17;;;;;;;3.58;2.92;;;;;;;-6.96;100.00;93825.78;2129347;27;20471;-80
2024/01/21 02:42:18;;;;;;;5.50;3.10;;;;;;;-7.04;100.00;93826.44;2129499;27;21055;-80
2024/01/21 02:43:19;;;;;;;4.13;2.78;;;;;;;-7.07;100.00;93824.41;2129262;27;20455;-80
2024/01/21 02:44:20;;;;;;;3.80;2.67;;;;;;;-7.03;100.00;93830.59;2112782;28;20024;-81
2024/01/21 02:45:21;;;;;;;4.57;3.35;;;;;;;-7.05;100.00;93820.50;2112159;28;20020;-79
2024/01/21 02:46:22;;;;;;;3.85;2.92;;;;;;;-6.85;100.00;93825.31;2120717;28;20051;-81
2024/01/21 02:47:24;;;;;;;4.45;3.10;;;;;;;-6.94;100.00;93823.66;2120934;28;20734;-79
2024/01/21 02:48:25;;;;;;;4.15;3.17;;;;;;;-7.02;100.00;93827.72;2121086;28;20538;-79
2024/01/21 02:49:28;;;;;;;4.30;3.03;;;;;;;-7.06;100.00;93834.53;2111670;27;20456;-80
2024/01/21 02:50:29;;;;;;;4.10;2.97;;;;;;;-7.01;100.00;93828.47;2114995;28;20028;-80
2024/01/21 02:51:30;;;;;;;4.10;3.22;;;;;;;-6.99;100.00;93840.09;2114405;28;20437;-81
2024/01/21 02:52:31;;;;;;;4.80;3.05;;;;;;;-7.04;100.00;93839.44;2112064;28;20626;-80
2024/01/21 02:53:32;;;;;;;4.38;3.05;;;;;;;-7.12;100.00;93835.66;2109715;28;20461;-80
2024/01/21 02:54:33;;;;;;;4.63;3.03;;;;;;;-7.19;100.00;93838.66;2095774;28;20390;-81
2024/01/21 02:55:35;;;;;;;3.58;2.50;;;;;;;-7.19;100.00;93843.84;2096858;28;20416;-79
2024/01/21 02:56:36;;;;;;;3.72;3.00;;;;;;;-7.06;100.00;93841.56;2110438;28;20466;-82
2024/01/21 02:57:37;;;;;;;6.25;2.90;;;;;;;-7.02;100.00;93850.31;2075306;27;22271;-80
2024/01/21 02:58:37;;;;;;;5.63;3.38;;;;;;;-7.07;100.00;93845.97;2024954;28;20123;-79
2024/01/21 02:59:38;;;;;;;5.53;3.03;;;;;;;-6.94;100.00;93852.22;2027594;28;20028;-81
2024/01/21 03:00:39;;;;;;;3.65;2.65;;;;;;;-6.97;100.00;93851.00;2038392;28;22881;-81
2024/01/21 03:01:41;;;;;;;3.67;3.00;;;;;;;-7.05;100.00;93843.09;2022184;28;20114;-80
2024/01/21 03:02:41;;;;;;;4.30;3.15;;;;;;;-6.88;100.00;93844.06;2055982;28;20034;-80
2024/01/21 03:03:42;;;;;;;4.38;3.03;;;;;;;-6.94;100.00;93842.59;2058763;28;20503;-80
2024/01/21 03:04:43;;;;;;;3.63;2.83;;;;;;;-6.97;100.00;93839.84;2060603;28;20126;-79
2024/01/21 03:05:44;;;;;;;4.00;2.85;;;;;;;-6.93;100.00;93841.56;2047604;28;20472;-79
2024/01/21 03:06:45;;;;;;;4.78;3.08;;;;;;;-6.94;100.00;93834.81;2064796;28;20039;-79
2024/01/21 03:07:46;;;;;;;3.90;2.90;;;;;;;-6.96;100.00;93830.97;2058067;28;22190;-78
2024/01/21 03:08:47;;;;;;;4.60;3.20;;;;;;;-6.95;100.00;93822.13;2082767;28;20031;-80
2024/01/21 03:09:48;;;;;;;4.38;2.70;;;;;;;-6.80;100.00;93814.06;2101251;27;20034;-79
2024/01/21 03:10:50;;;;;;;4.43;3.10;;;;;;;-6.92;100.00;93816.34;2096043;28;20027;-81
2024/01/21 03:11:56;;;;;;;5.30;3.78;;;;;;;-6.76;100.00;93809.81;2104024;28;20020;-80
2024/01/21 03:12:57;;;;;;;4.88;2.70;;;;;;;-6.86;100.00;93804.78;2112177;27;20496;-79
2024/01/21 03:13:58;;;;;;;6.30;3.38;;;;;;;-6.95;100.00;93825.50;2129175;27;20856;-82
2024/01/21 03:14:59;;;;;;;6.50;3.25;;;;;;;-6.97;100.00;93817.22;2112230;28;20078;-80
2024/01/21 03:16:00;;;;;;;4.40;3.30;;;;;;;-6.85;100.00;93819.31;2103776;28;20865;-80
2024/01/21 03:17:03;;;;;;;6.10;3.00;;;;;;;-6.95;100.00;93816.94;2112452;28;20476;-79
2024/01/21 03:18:04;;;;;;;5.35;3.30;;;;;;;-7.00;100.00;93819.63;2112540;28;20521;-81
2024/01/21 03:19:05;;;;;;;4.25;2.88;;;;;;;-7.07;100.00;93812.19;2108624;28;20438;-80
2024/01/21 03:20:06;;;;;;;6.00;3.50;;;;;;;-7.10;100.00;93812.78;2095575;28;20455;-83
2024/01/21 03:21:13;;;;;;;4.68;3.08;;;;;;;-7.05;100.00;93811.94;2103978;28;20486;-81
2024/01/21 03:22:14;;;;;;;8.15;3.60;;;;;;;-6.99;100.00;93805.56;2114027;28;20968;-80
2024/01/21 03:23:15;;;;;;;4.47;3.08;;;;;;;-6.93;100.00;93799.22;2116470;28;20469;-79
2024/01/21 03:24:16;;;;;;;7.97;3.80;;;;;;;-6.99;100.00;93805.56;2112221;28;20477;-80
2024/01/21 03:25:17;;;;;;;4.75;3.17;;;;;;;-7.00;100.00;93801.44;2095114;28;20029;-79
2024/01/21 03:26:18;;;;;;;5.25;3.13;;;;;;;-7.02;100.00;93801.72;2112713;27;20515;-79
2024/01/21 03:27:19;;;;;;;3.83;3.20;;;;;;;-7.06;100.00;93800.78;2113542;28;20031;-81
2024/01/21 03:28:20;;;;;;;4.70;3.72;;;;;;;-7.01;100.00;93798.06;2118962;28;20043;-82
2024/01/21 03:29:21;;;;;;;5.38;3.30;;;;;;;-7.05;100.00;93801.53;2116714;28;20129;-80
2024/01/21 03:30:22;;;;;;;5.35;3.60;;;;;;;-7.08;100.00;93802.09;2120564;28;20043;-80
2024/01/21 03:31:22;;;;;;;5.18;3.28;;;;;;;-7.12;100.00;93807.09;2115700;28;20068;-80
2024/01/21 03:32:23;;;;;;;5.53;3.45;;;;;;;-7.13;100.00;93808.94;2110415;28;20036;-80
2024/01/21 03:33:25;;;;;;;5.10;3.17;;;;;;;-7.16;100.00;93806.13;2104370;28;20028;-80
2024/01/21 03:34:26;;;;;;;4.78;3.22;;;;;;;-7.17;100.00;93809.78;2095626;28;20044;-82
2024/01/21 03:35:27;;;;;;;4.88;3.25;;;;;;;-7.14;100.00;93807.41;2095144;28;20959;-79
2024/01/21 03:36:28;;;;;;;6.75;3.88;;;;;;;-7.00;100.00;93807.41;2109320;28;20035;-81
2024/01/21 03:37:29;;;;;;;4.90;3.30;;;;;;;-6.88;100.00;93814.72;2113789;28;20504;-79
2024/01/21 03:38:30;;;;;;;6.68;3.58;;;;;;;-6.97;100.00;93806.84;2112546;28;20032;-79
2024/01/21 03:39:30;;;;;;;6.95;3.60;;;;;;;-7.07;100.00;93811.44;2114504;28;20030;-82
2024/01/21 03:40:31;;;;;;;8.07;3.72;;;;;;;-7.02;100.00;93813.94;2104810;28;20031;-80
2024/01/21 03:41:32;;;;;;;6.20;3.80;;;;;;;-7.17;100.00;93810.56;2091908;28;20033;-81
2024/01/21 03:42:33;;;;;;;6.55;3.63;;;;;;;-7.21;100.00;93811.41;2106546;28;20028;-81
2024/01/21 03:43:34;;;;;;;4.13;3.17;;;;;;;-7.25;100.00;93800.06;2115095;28;20019;-79
2024/01/21 03:44:35;;;;;;;7.28;3.70;;;;;;;-7.08;100.00;93799.50;2114881;28;20048;-80
2024/01/21 03:45:36;;;;;;;5.00;4.03;;;;;;;-7.20;100.00;93805.97;2106471;28;20428;-80
2024/01/21 03:46:37;;;;;;;5.28;3.80;;;;;;;-7.06;100.00;93807.78;2106373;28;20059;-80
2024/01/21 03:47:38;;;;;;;9.38;3.95;;;;;;;-7.12;100.00;93809.69;2114891;28;20051;-80
2024/01/21 03:48:39;;;;;;;6.45;3.72;;;;;;;-7.16;100.00;93808.72;2114803;28;20042;-81
2024/01/21 03:49:40;;;;;;;5.63;3.60;;;;;;;-7.18;100.00;93809.03;2115061;28;20028;-80
2024/01/21 03:50:40;;;;;;;9.27;4.10;;;;;;;-7.07;100.00;93809.59;2123105;27;20054;-81
2024/01/21 03:51:41;;;;;;;5.85;3.50;;;;;;;-7.05;100.00;93806.72;2114683;28;20438;-79
2024/01/21 03:52:42;;;;;;;5.90;3.92;;;;;;;-6.99;100.00;93811.53;2114690;28;20028;-80
2024/01/21 03:53:43;;;;;;;6.45;3.60;;;;;;;-7.06;100.00;93818.19;2106502;28;20051;-81
2024/01/21 03:54:45;;;;;;;5.70;3.72;;;;;;;-7.05;100.00;93812.69;2104400;28;20020;-80
2024/01/21 03:55:45;;;;;;;6.70;3.60;;;;;;;-7.08;100.00;93807.28;2114616;28;20035;-82
2024/01/21 03:56:47;;;;;;;7.18;3.95;;;;;;;-7.08;100.00;93822.88;2106528;28;20528;-80
2024/01/21 03:57:48;;;;;;;4.68;3.20;;;;;;;-6.78;100.00;93816.34;2100475;28;20028;-80
2024/01/21 03:58:50;;;;;;;5.53;3.75;;;;;;;-6.37;100.00;93811.09;2097867;28;20447;-81
2024/01/21 03:59:51;;;;;;;6.72;3.95;;;;;;;-6.60;100.00;93813.63;2102198;28;20470;-80
2024/01/21 04:00:52;;;;;;;5.28;4.35;;;;;;;-6.83;100.00;93806.81;2113344;28;20526;-80
2024/01/21 04:01:53;;;;;;;6.20;4.13;;;;;;;-6.76;100.00;93814.22;2113690;28;20115;-79
2024/01/21 04:02:54;;;;;;;5.50;4.00;;;;;;;-6.94;100.00;93810.66;2096644;28;20028;-80
2024/01/21 04:03:55;;;;;;;5.80;3.85;;;;;;;-7.03;100.00;93817.59;2097511;28;20120;-82
2024/01/21 04:04:56;;;;;;;4.38;3.53;;;;;;;-6.99;100.00;93814.13;2098169;28;20020;-81
2024/01/21 04:05:57;;;;;;;5.13;3.78;;;;;;;-6.99;100.00;93821.16;2114390;28;20036;-80
2024/01/21 04:06:58;;;;;;;8.95;3.92;;;;;;;-6.97;100.00;93806.06;2105823;28;20496;-81
2024/01/21 04:07:59;;;;;;;7.15;4.35;;;;;;;-7.00;100.00;93810.00;2106304;28;20040;-79
2024/01/21 04:09:00;;;;;;;6.45;4.28;;;;;;;-7.08;100.00;93805.47;2116316;27;20027;-79
2024/01/21 04:10:03;;;;;;;6.68;4.15;;;;;;;-7.06;100.00;93810.41;2110387;28;20449;-79
2024/01/21 04:11:04;;;;;;;6.50;4.18;;;;;;;-7.08;100.00;93807.28;2110156;28;20118;-80
2024/01/21 04:12:06;;;;;;;6.63;4.57;;;;;;;-7.04;100.00;93806.44;2097636;28;20525;-81
2024/01/21 04:13:07;;;;;;;5.95;3.83;;;;;;;-7.04;100.00;93809.03;2089738;28;20447;-80
2024/01/21 04:14:08;;;;;;;7.75;4.40;;;;;;;-7.01;100.00;93812.91;2097780;28;20457;-80
2024/01/21 04:15:09;;;;;;;6.05;4.45;;;;;;;-7.02;100.00;93806.13;2089666;28;20033;-79
2024/01/21 04:16:10;;;;;;;7.30;4.55;;;;;;;-6.90;100.00;93806.44;2097816;28;20835;-81
2024/01/21 04:17:11;;;;;;;7.15;4.45;;;;;;;-7.02;100.00;93804.34;2099446;28;20551;-79
2024/01/21 04:18:13;;;;;;;6.28;4.20;;;;;;;-6.97;100.00;93808.66;2093509;28;21075;-80
2024/01/21 04:19:18;;;;;;;6.28;4.68;;;;;;;-6.87;100.00;93804.03;2097754;28;20452;-80
2024/01/21 04:20:19;;;;;;;6.78;4.88;;;;;;;-6.94;100.00;93805.47;2097865;28;20520;-80
2024/01/21 04:21:20;;;;;;;7.55;4.78;;;;;;;-6.94;100.00;93800.28;2097951;28;20477;-79
2024/01/21 04:22:21;;;;;;;7.97;4.93;;;;;;;-6.93;100.00;93794.81;2114275;28;20249;-79
2024/01/21 04:23:22;;;;;;;7.22;5.15;;;;;;;-6.75;100.00;93797.59;2106189;28;20023;-81
2024/01/21 04:24:23;;;;;;;6.53;4.65;;;;;;;-6.57;100.00;93788.91;2106152;28;21050;-79
2024/01/21 04:25:24;;;;;;;8.63;4.85;;;;;;;-6.64;100.00;93794.47;2112588;27;20048;-79
2024/01/21 04:26:25;;;;;;;8.05;4.70;;;;;;;-6.78;100.00;93795.56;2097851;28;20044;-80
2024/01/21 04:27:28;;;;;;;8.52;5.28;;;;;;;-6.91;100.00;93792.69;2089253;28;20394;-81
2024/01/21 04:28:29;;;;;;;6.93;5.47;;;;;;;-6.92;100.00;93792.97;2097752;28;20443;-80
2024/01/21 04:29:30;;;;;;;10.20;5.63;;;;;;;-6.89;100.00;93784.56;2102034;28;20446;-80
2024/01/21 04:30:31;;;;;;;7.88;4.95;;;;;;;-6.96;100.00;93784.97;2099420;28;20490;-80
2024/01/21 04:31:32;;;;;;;6.43;5.05;;;;;;;-6.89;100.00;93787.97;2097834;28;20025;-80
2024/01/21 04:32:33;;;;;;;7.90;5.47;;;;;;;-6.90;100.00;93781.22;2093346;28;20065;-81
2024/01/21 04:33:35;;;;;;;8.27;5.47;;;;;;;-6.90;100.00;93790.84;2097899;28;20480;-80
2024/01/21 04:34:36;;;;;;;9.00;5.20;;;;;;;-6.90;100.00;93790.84;2105858;28;20023;-80
2024/01/21 04:35:37;;;;;;;8.77;5.28;;;;;;;-6.93;100.00;93794.81;2111037;28;20453;-81
2024/01/21 04:36:38;;;;;;;6.93;4.93;;;;;;;-6.82;100.00;93792.75;2120133;27;20035;-79
2024/01/21 04:37:39;;;;;;;6.97;5.32;;;;;;;-6.84;100.00;93787.09;2122620;27;20027;-80
2024/01/21 04:38:40;;;;;;;9.15;5.35;;;;;;;-6.91;100.00;93787.47;2114332;28;20023;-81
2024/01/21 04:39:42;;;;;;;8.88;5.80;;;;;;;-6.88;100.00;93783.53;2104180;28;20392;-81
2024/01/21 04:40:43;;;;;;;6.47;5.15;;;;;;;-6.76;100.00;93781.22;2101702;28;20501;-81
2024/01/21 04:41:44;;;;;;;8.48;5.55;;;;;;;-6.85;100.00;93781.13;2093156;28;20447;-79
2024/01/21 04:42:45;;;;;;;6.35;5.10;;;;;;;-6.87;100.00;93791.03;2097642;28;20074;-80
2024/01/21 04:43:46;;;;;;;11.75;6.70;;;;;;;-6.97;100.00;93785.28;2097145;28;20036;-81
2024/01/21 04:44:47;;;;;;;9.27;5.85;;;;;;;-6.81;100.00;93783.13;2089517;28;20033;-80
2024/01/21 04:45:48;;;;;;;11.68;5.85;;;;;;;-6.88;100.00;93786.13;2105906;28;20820;-81
2024/01/21 04:46:49;;;;;;;9.73;6.10;;;;;;;-6.75;100.00;93784.59;2114274;28;20039;-81